Time;durP1;ratioP1;P1;durP2;ratioP2;P2;SDS_P1;SDS_P2;PMS_P1;PMS_P2;Temp;Humidity;BMP_temperature;BMP_pressure;BME280_temperature;BME280_humidity;BME280_pressure;Samples;Min_cycle;Max_cycle;Signal;HPM_P1;HPM_P2
2023/07/24 00:01:30;;;;;;;;;;;19.10;99.90;;;;;;8365379;28;20432;-71
2023/07/24 00:05:32;;;;;;;;;;;19.10;99.90;;;;;;8375015;28;19924;-71
2023/07/24 00:09:34;;;;;;;;;;;19.10;99.90;;;;;;8379636;28;20136;-71
2023/07/24 00:13:35;;;;;;;;;;;19.00;99.90;;;;;;8401402;28;20441;-71
2023/07/24 00:17:37;;;;;;;;;;;19.00;99.90;;;;;;8395559;28;19932;-72
2023/07/24 00:21:39;;;;;;;;;;;18.90;99.90;;;;;;8359980;28;19932;-71
2023/07/24 00:25:40;;;;;;;;;;;18.90;99.90;;;;;;8359562;28;19973;-71
2023/07/24 00:29:42;;;;;;;;;;;18.90;99.90;;;;;;8351705;28;19971;-71
2023/07/24 00:33:43;;;;;;;;;;;18.90;99.90;;;;;;8361360;28;19955;-71
2023/07/24 00:37:45;;;;;;;;;;;18.90;99.90;;;;;;8361450;28;19931;-71
2023/07/24 00:41:47;;;;;;;;;;;18.90;99.90;;;;;;8370582;28;19924;-71
2023/07/24 00:45:49;;;;;;;;;;;18.90;99.90;;;;;;8394057;28;19931;-71
2023/07/24 00:49:50;;;;;;;;;;;19.00;99.90;;;;;;8387540;28;19986;-71
2023/07/24 00:53:52;;;;;;;;;;;19.00;99.90;;;;;;8400982;28;19929;-71
2023/07/24 00:57:54;;;;;;;;;;;19.00;99.90;;;;;;8391637;28;19925;-71
2023/07/24 01:01:56;;;;;;;;;;;19.00;99.90;;;;;;8363489;28;19954;-71
2023/07/24 01:05:59;;;;;;;;;;;19.00;99.90;;;;;;8389836;28;19924;-71
2023/07/24 01:10:00;;;;;;;;;;;19.00;99.90;;;;;;8389041;28;19931;-71
2023/07/24 01:14:10;;;;;;;;;;;19.00;99.90;;;;;;8381765;28;19929;-71
2023/07/24 01:18:13;;;;;;;;;;;19.00;99.90;;;;;;8394547;28;19943;-71
2023/07/24 01:22:15;;;;;;;;;;;19.00;99.90;;;;;;8382901;28;19932;-71
2023/07/24 01:26:17;;;;;;;;;;;19.10;99.90;;;;;;8355583;28;20311;-71
2023/07/24 01:30:19;;;;;;;;;;;19.10;99.90;;;;;;8361614;28;19924;-71
2023/07/24 01:34:21;;;;;;;;;;;19.00;99.90;;;;;;8361015;28;19925;-71
2023/07/24 01:38:26;;;;;;;;;;;19.10;99.90;;;;;;8346742;28;19934;-71
2023/07/24 01:42:28;;;;;;;;;;;19.10;99.90;;;;;;8376204;28;19924;-71
2023/07/24 01:46:30;;;;;;;;;;;19.10;99.90;;;;;;8377141;28;20005;-71
2023/07/24 01:50:32;;;;;;;;;;;19.10;99.90;;;;;;8376421;28;19926;-71
2023/07/24 01:54:33;;;;;;;;;;;19.00;99.90;;;;;;8385937;28;19974;-71
2023/07/24 01:58:35;;;;;;;;;;;19.00;99.90;;;;;;8358522;28;19924;-70
2023/07/24 02:02:36;;;;;;;;;;;19.00;99.90;;;;;;8381989;28;20593;-71
2023/07/24 02:06:38;;;;;;;;;;;18.90;99.90;;;;;;8371799;28;19963;-71
2023/07/24 02:10:40;;;;;;;;;;;18.90;99.90;;;;;;8392363;28;19929;-71
2023/07/24 02:14:41;;;;;;;;;;;18.90;99.90;;;;;;8356578;28;19971;-71
2023/07/24 02:18:43;;;;;;;;;;;18.90;99.90;;;;;;8384393;28;19935;-71
2023/07/24 02:22:45;;;;;;;;;;;18.80;99.90;;;;;;8378601;28;19926;-71
2023/07/24 02:26:47;;;;;;;;;;;18.80;99.90;;;;;;8370267;28;20382;-71
2023/07/24 02:30:48;;;;;;;;;;;18.80;99.90;;;;;;8378653;28;19925;-71
2023/07/24 02:34:50;;;;;;;;;;;18.80;99.90;;;;;;8369893;28;19947;-71
2023/07/24 02:38:52;;;;;;;;;;;18.80;99.90;;;;;;8390958;28;19924;-71
2023/07/24 02:42:54;;;;;;;;;;;18.80;99.90;;;;;;8382155;28;20365;-71
2023/07/24 02:46:55;;;;;;;;;;;18.80;99.90;;;;;;8381169;28;19980;-71
2023/07/24 02:50:57;;;;;;;;;;;18.80;99.90;;;;;;8389892;28;19970;-71
2023/07/24 02:54:59;;;;;;;;;;;18.80;99.90;;;;;;8392794;28;19954;-71
2023/07/24 02:59:00;;;;;;;;;;;18.80;99.90;;;;;;8356167;28;20417;-71
2023/07/24 03:03:02;;;;;;;;;;;18.80;99.90;;;;;;8367731;28;20292;-71
2023/07/24 03:07:04;;;;;;;;;;;18.80;99.90;;;;;;8397250;28;19933;-70
2023/07/24 03:11:05;;;;;;;;;;;18.80;99.90;;;;;;8388854;28;19981;-71
2023/07/24 03:15:07;;;;;;;;;;;18.70;99.90;;;;;;8385007;28;19949;-71
2023/07/24 03:19:09;;;;;;;;;;;18.70;99.90;;;;;;8350778;28;19928;-71
2023/07/24 03:23:11;;;;;;;;;;;18.70;99.90;;;;;;8366075;28;20036;-71
2023/07/24 03:27:13;;;;;;;;;;;18.70;99.90;;;;;;8398917;28;19977;-71
2023/07/24 03:31:14;;;;;;;;;;;18.70;99.90;;;;;;8389713;28;20367;-71
2023/07/24 03:35:16;;;;;;;;;;;18.70;99.90;;;;;;8391714;28;19924;-71
2023/07/24 03:39:18;;;;;;;;;;;18.60;99.90;;;;;;8373626;28;19932;-71
2023/07/24 03:43:19;;;;;;;;;;;18.60;99.90;;;;;;8374808;28;19935;-71
2023/07/24 03:47:21;;;;;;;;;;;18.50;99.90;;;;;;8384128;28;19929;-71
2023/07/24 03:51:23;;;;;;;;;;;18.50;99.90;;;;;;8380059;28;19959;-71
2023/07/24 03:55:25;;;;;;;;;;;18.40;99.90;;;;;;8378338;28;19924;-71
2023/07/24 03:59:26;;;;;;;;;;;18.40;99.90;;;;;;8390195;28;20064;-71
2023/07/24 04:03:28;;;;;;;;;;;18.40;99.90;;;;;;8391315;28;19925;-71
2023/07/24 04:07:30;;;;;;;;;;;18.30;99.90;;;;;;8375014;28;19929;-71
2023/07/24 04:11:31;;;;;;;;;;;18.30;99.90;;;;;;8387940;28;19970;-71
2023/07/24 04:15:33;;;;;;;;;;;18.20;99.90;;;;;;8363257;28;19932;-71
2023/07/24 04:19:34;;;;;;;;;;;18.20;99.90;;;;;;8381541;28;19925;-71
2023/07/24 04:23:36;;;;;;;;;;;18.10;99.90;;;;;;8378725;28;19925;-71
2023/07/24 04:27:38;;;;;;;;;;;18.10;99.90;;;;;;8379256;28;19925;-71
2023/07/24 04:31:40;;;;;;;;;;;18.10;99.90;;;;;;8394014;28;19943;-71
2023/07/24 04:35:42;;;;;;;;;;;18.10;99.90;;;;;;8394855;28;19924;-71
2023/07/24 04:39:44;;;;;;;;;;;18.10;99.90;;;;;;8364353;28;19936;-71
2023/07/24 04:43:45;;;;;;;;;;;18.10;99.90;;;;;;8376539;28;19946;-71
2023/07/24 04:47:47;;;;;;;;;;;18.10;99.90;;;;;;8376524;28;20379;-71
2023/07/24 04:51:49;;;;;;;;;;;18.10;99.90;;;;;;8403304;28;19924;-71
2023/07/24 04:55:51;;;;;;;;;;;18.10;99.90;;;;;;8394155;28;19932;-71
2023/07/24 04:59:52;;;;;;;;;;;18.00;99.90;;;;;;8372204;28;19928;-71
2023/07/24 05:03:54;;;;;;;;;;;18.00;99.90;;;;;;8365559;28;19929;-71
2023/07/24 05:07:56;;;;;;;;;;;18.00;99.90;;;;;;8374209;28;19928;-71
2023/07/24 05:11:57;;;;;;;;;;;18.00;99.90;;;;;;8382123;28;19970;-71
2023/07/24 05:15:59;;;;;;;;;;;18.00;99.90;;;;;;8378164;28;20372;-71
2023/07/24 05:20:00;;;;;;;;;;;18.00;99.90;;;;;;8384864;28;19964;-71
2023/07/24 05:24:02;;;;;;;;;;;18.00;99.90;;;;;;8342298;28;19928;-71
2023/07/24 05:28:04;;;;;;;;;;;18.00;99.90;;;;;;8374685;28;19993;-71
2023/07/24 05:32:06;;;;;;;;;;;18.00;99.90;;;;;;8369437;28;19928;-71
2023/07/24 05:36:07;;;;;;;;;;;18.00;99.90;;;;;;8383976;28;19925;-71
2023/07/24 05:40:09;;;;;;;;;;;18.00;99.90;;;;;;8369131;28;20327;-71
2023/07/24 05:44:11;;;;;;;;;;;18.10;99.90;;;;;;8379381;28;19924;-71
2023/07/24 05:48:12;;;;;;;;;;;18.10;99.90;;;;;;8381894;28;19925;-71
2023/07/24 05:52:14;;;;;;;;;;;18.10;99.90;;;;;;8389026;28;19936;-71
2023/07/24 05:56:16;;;;;;;;;;;18.10;99.90;;;;;;8359494;28;19928;-71
2023/07/24 06:00:17;;;;;;;;;;;18.10;99.90;;;;;;8370012;28;19993;-71
2023/07/24 06:04:19;;;;;;;;;;;18.10;99.90;;;;;;8369081;28;20240;-71
2023/07/24 06:08:21;;;;;;;;;;;18.10;99.90;;;;;;8368847;28;19974;-71
2023/07/24 06:12:23;;;;;;;;;;;18.20;99.90;;;;;;8388820;28;19970;-71
2023/07/24 06:16:25;;;;;;;;;;;18.30;99.90;;;;;;8367963;28;19992;-71
2023/07/24 06:20:26;;;;;;;;;;;18.30;99.90;;;;;;8386800;28;20268;-71
2023/07/24 06:24:28;;;;;;;;;;;18.40;99.90;;;;;;8355554;28;20396;-72
2023/07/24 06:28:31;;;;;;;;;;;18.30;99.90;;;;;;8362867;28;19932;-71
2023/07/24 06:32:33;;;;;;;;;;;18.30;99.90;;;;;;8389274;28;20445;-71
2023/07/24 06:36:35;;;;;;;;;;;18.30;99.90;;;;;;8387465;28;20015;-71
2023/07/24 06:40:36;;;;;;;;;;;18.30;99.90;;;;;;8385755;28;19928;-71
2023/07/24 06:44:38;;;;;;;;;;;18.40;99.90;;;;;;8379666;28;19924;-71
2023/07/24 06:48:40;;;;;;;;;;;18.40;99.90;;;;;;8386327;28;20385;-71
2023/07/24 06:52:41;;;;;;;;;;;18.50;99.90;;;;;;8381562;28;19924;-71
2023/07/24 06:56:45;;;;;;;;;;;18.50;99.90;;;;;;8377697;28;20391;-72
2023/07/24 07:00:46;;;;;;;;;;;18.60;99.90;;;;;;8388756;28;19924;-72
2023/07/24 07:04:48;;;;;;;;;;;18.80;99.90;;;;;;8409914;28;20277;-71
2023/07/24 07:08:50;;;;;;;;;;;18.90;99.90;;;;;;8382329;28;19928;-71
2023/07/24 07:12:51;;;;;;;;;;;19.00;99.90;;;;;;8385365;28;20291;-72
2023/07/24 07:16:53;;;;;;;;;;;18.90;99.90;;;;;;8394752;28;19925;-71
2023/07/24 07:20:55;;;;;;;;;;;19.00;99.90;;;;;;8375735;28;20383;-71
2023/07/24 07:24:56;;;;;;;;;;;19.10;99.90;;;;;;8370975;28;20316;-71
2023/07/24 07:28:58;;;;;;;;;;;19.10;99.90;;;;;;8383816;28;19987;-72
2023/07/24 07:33:00;;;;;;;;;;;19.10;99.90;;;;;;8390568;28;19928;-72
2023/07/24 07:37:02;;;;;;;;;;;19.10;99.90;;;;;;8397730;28;20015;-71
2023/07/24 07:41:04;;;;;;;;;;;19.00;99.90;;;;;;8370084;28;20295;-71
2023/07/24 07:45:06;;;;;;;;;;;19.00;99.90;;;;;;8365938;28;19991;-72
2023/07/24 07:49:07;;;;;;;;;;;18.90;99.90;;;;;;8383779;28;19928;-71
2023/07/24 07:53:09;;;;;;;;;;;18.90;99.90;;;;;;8378967;28;20384;-71
2023/07/24 07:57:11;;;;;;;;;;;18.90;99.90;;;;;;8374452;28;19929;-71
2023/07/24 08:01:12;;;;;;;;;;;18.90;99.90;;;;;;8359050;28;19924;-71
2023/07/24 08:05:15;;;;;;;;;;;18.90;99.90;;;;;;8368829;28;19932;-71
2023/07/24 08:09:23;;;;;;;;;;;19.00;99.90;;;;;;8346773;28;20278;-72
2023/07/24 08:13:25;;;;;;;;;;;19.00;99.90;;;;;;8350678;28;19951;-71
2023/07/24 08:17:27;;;;;;;;;;;19.10;99.90;;;;;;8329765;28;20288;-71
2023/07/24 08:21:29;;;;;;;;;;;19.20;99.90;;;;;;8313862;28;19929;-71
2023/07/24 08:25:30;;;;;;;;;;;19.20;99.90;;;;;;8330982;28;19929;-71
2023/07/24 08:29:33;;;;;;;;;;;19.30;99.90;;;;;;8334432;28;19925;-71
2023/07/24 08:33:35;;;;;;;;;;;19.20;99.90;;;;;;8339532;28;19925;-71
2023/07/24 08:37:36;;;;;;;;;;;19.20;99.90;;;;;;8333576;28;19936;-71
2023/07/24 08:41:38;;;;;;;;;;;19.20;99.90;;;;;;8336859;28;19925;-72
2023/07/24 08:45:40;;;;;;;;;;;19.20;99.90;;;;;;8345132;28;19974;-72
2023/07/24 08:49:41;;;;;;;;;;;19.10;99.90;;;;;;8335113;28;19939;-71
2023/07/24 08:53:43;;;;;;;;;;;19.10;99.90;;;;;;8348467;28;19925;-71
2023/07/24 08:57:45;;;;;;;;;;;19.10;99.90;;;;;;8335020;28;20406;-71
2023/07/24 09:01:47;;;;;;;;;;;19.20;99.90;;;;;;8336633;28;19971;-72
2023/07/24 09:05:48;;;;;;;;;;;19.40;99.90;;;;;;8328771;28;19925;-71
2023/07/24 09:09:50;;;;;;;;;;;19.60;99.90;;;;;;8326723;28;19926;-71
2023/07/24 09:13:52;;;;;;;;;;;19.60;99.90;;;;;;8334963;28;19924;-71
2023/07/24 09:17:55;;;;;;;;;;;19.50;99.90;;;;;;8340713;28;19932;-71
2023/07/24 09:37:09;;;;;;;;;;;19.30;99.90;;;;;;8330419;28;19965;-71
2023/07/24 09:41:13;;;;;;;;;;;19.20;99.90;;;;;;8345005;28;19925;-71
2023/07/24 09:45:15;;;;;;;;;;;19.30;99.90;;;;;;8342797;28;19932;-72
2023/07/24 09:49:17;;;;;;;;;;;19.30;99.90;;;;;;8330735;28;19932;-72
2023/07/24 09:53:37;;;;;;;;;;;19.40;99.90;;;;;;8337042;28;20019;-71
2023/07/24 09:57:39;;;;;;;;;;;19.50;99.90;;;;;;8334281;28;19928;-71
2023/07/24 10:01:42;;;;;;;;;;;19.60;99.90;;;;;;8327150;28;19959;-72
2023/07/24 10:05:44;;;;;;;;;;;19.60;99.90;;;;;;8342264;28;19931;-72
2023/07/24 10:09:46;;;;;;;;;;;19.60;99.90;;;;;;8340094;28;19937;-71
2023/07/24 10:13:48;;;;;;;;;;;19.70;99.90;;;;;;8328828;28;19932;-72
2023/07/24 10:18:00;;;;;;;;;;;19.80;99.90;;;;;;8329452;28;20396;-71
2023/07/24 10:22:03;;;;;;;;;;;19.90;99.90;;;;;;8310997;28;20010;-72
2023/07/24 10:26:05;;;;;;;;;;;19.90;99.90;;;;;;8345526;28;19936;-72
2023/07/24 10:30:07;;;;;;;;;;;19.70;99.90;;;;;;8335124;28;19929;-72
2023/07/24 10:34:23;;;;;;;;;;;19.60;99.90;;;;;;8333102;28;19929;-71
2023/07/24 10:38:33;;;;;;;;;;;19.70;99.90;;;;;;8337302;28;19925;-71
2023/07/24 10:42:36;;;;;;;;;;;19.70;99.90;;;;;;8333933;28;20345;-72
2023/07/24 10:46:44;;;;;;;;;;;19.80;99.90;;;;;;8334456;28;19929;-72
2023/07/24 10:50:47;;;;;;;;;;;19.90;99.90;;;;;;8333001;28;19967;-71
2023/07/24 10:54:52;;;;;;;;;;;20.10;99.90;;;;;;8353145;28;19925;-72
2023/07/24 10:58:54;;;;;;;;;;;20.00;99.90;;;;;;8338431;28;20372;-72
2023/07/24 11:02:55;;;;;;;;;;;20.00;99.90;;;;;;8349151;28;19925;-71
2023/07/24 11:06:57;;;;;;;;;;;19.90;99.90;;;;;;8335558;28;19932;-72
2023/07/24 11:11:00;;;;;;;;;;;19.90;99.90;;;;;;8348084;28;19929;-71
2023/07/24 11:15:02;;;;;;;;;;;19.90;99.90;;;;;;8334014;28;19932;-71
2023/07/24 11:19:04;;;;;;;;;;;20.00;99.90;;;;;;8336370;28;20359;-71
2023/07/24 11:23:05;;;;;;;;;;;20.10;99.90;;;;;;8349258;28;19928;-71
2023/07/24 11:27:14;;;;;;;;;;;20.30;99.90;;;;;;8323917;28;19928;-71
2023/07/24 11:31:19;;;;;;;;;;;20.40;99.90;;;;;;8338513;28;19925;-72
2023/07/24 11:35:21;;;;;;;;;;;20.40;99.90;;;;;;8337141;28;20253;-71
2023/07/24 11:39:23;;;;;;;;;;;20.40;99.90;;;;;;8336260;28;20276;-72
2023/07/24 11:43:26;;;;;;;;;;;20.40;99.90;;;;;;8331858;28;19978;-71
2023/07/24 11:47:28;;;;;;;;;;;20.30;99.90;;;;;;8331669;28;19929;-71
2023/07/24 11:51:33;;;;;;;;;;;20.20;99.90;;;;;;8347433;28;19929;-71
2023/07/24 11:55:35;;;;;;;;;;;20.10;99.90;;;;;;8335215;28;19929;-71
2023/07/24 11:59:37;;;;;;;;;;;20.00;99.90;;;;;;8346692;28;19929;-71
2023/07/24 12:03:40;;;;;;;;;;;19.90;99.90;;;;;;8333442;28;19925;-72
2023/07/24 12:07:43;;;;;;;;;;;19.90;99.90;;;;;;8337204;28;19925;-71
2023/07/24 12:11:46;;;;;;;;;;;19.90;99.90;;;;;;8331167;28;19987;-71
2023/07/24 12:15:47;;;;;;;;;;;19.90;99.90;;;;;;8335576;28;19925;-71
2023/07/24 12:19:49;;;;;;;;;;;20.00;99.90;;;;;;8344887;28;19985;-71
2023/07/24 12:23:51;;;;;;;;;;;20.10;99.90;;;;;;8344376;28;19983;-71
2023/07/24 12:27:52;;;;;;;;;;;20.10;99.90;;;;;;8337180;28;19968;-71
2023/07/24 12:31:54;;;;;;;;;;;20.20;99.90;;;;;;8351822;28;19924;-72
2023/07/24 12:35:56;;;;;;;;;;;20.20;99.90;;;;;;8335073;28;19929;-71
2023/07/24 12:39:57;;;;;;;;;;;20.40;99.90;;;;;;8334083;28;19932;-72
2023/07/24 12:43:59;;;;;;;;;;;20.40;99.90;;;;;;8333798;28;21060;-72
2023/07/24 12:48:01;;;;;;;;;;;20.40;99.90;;;;;;8327903;28;19947;-72
2023/07/24 12:52:03;;;;;;;;;;;20.40;99.90;;;;;;8333024;28;20369;-72
2023/07/24 12:56:05;;;;;;;;;;;20.40;99.90;;;;;;8331297;28;20401;-72
2023/07/24 13:00:08;;;;;;;;;;;20.40;99.90;;;;;;8329069;28;19933;-71
2023/07/24 13:04:10;;;;;;;;;;;20.50;99.90;;;;;;8329940;28;19974;-72
2023/07/24 13:08:12;;;;;;;;;;;20.70;99.90;;;;;;8351916;28;20441;-72
2023/07/24 13:12:14;;;;;;;;;;;21.00;99.90;;;;;;8333382;28;19928;-71
2023/07/24 13:16:16;;;;;;;;;;;21.00;99.90;;;;;;8343779;28;19929;-72
2023/07/24 13:20:17;;;;;;;;;;;20.80;99.90;;;;;;8332958;28;19929;-72
2023/07/24 13:24:19;;;;;;;;;;;20.60;99.90;;;;;;8329534;28;19925;-72
2023/07/24 13:28:21;;;;;;;;;;;20.40;99.90;;;;;;8346477;28;20004;-71
2023/07/24 13:32:22;;;;;;;;;;;20.30;99.90;;;;;;8333861;28;19973;-71
2023/07/24 13:36:24;;;;;;;;;;;20.10;99.90;;;;;;8332037;28;19959;-72
2023/07/24 13:40:26;;;;;;;;;;;20.00;99.90;;;;;;8334972;28;19991;-72
2023/07/24 13:44:28;;;;;;;;;;;19.90;99.90;;;;;;8328201;28;19991;-72
2023/07/24 13:48:30;;;;;;;;;;;19.80;99.90;;;;;;8332634;28;19933;-72
2023/07/24 13:52:31;;;;;;;;;;;19.80;99.90;;;;;;8334746;28;19929;-72
2023/07/24 13:56:35;;;;;;;;;;;19.80;99.90;;;;;;8334155;28;19925;-72
2023/07/24 14:00:37;;;;;;;;;;;19.80;99.90;;;;;;8335496;28;19925;-71
2023/07/24 14:04:38;;;;;;;;;;;19.70;99.90;;;;;;8331280;28;20003;-71
2023/07/24 14:08:40;;;;;;;;;;;19.60;99.90;;;;;;8327638;28;19975;-72
2023/07/24 14:12:42;;;;;;;;;;;19.50;99.90;;;;;;8349262;28;20311;-72
2023/07/24 14:16:44;;;;;;;;;;;19.40;99.90;;;;;;8328387;28;19925;-72
2023/07/24 14:20:47;;;;;;;;;;;19.40;99.90;;;;;;8329938;28;19940;-72
2023/07/24 14:24:48;;;;;;;;;;;19.40;99.90;;;;;;8347635;28;19979;-71
2023/07/24 14:28:50;;;;;;;;;;;19.40;99.90;;;;;;8329289;28;19928;-72
2023/07/24 14:32:53;;;;;;;;;;;19.40;99.90;;;;;;8344161;28;19925;-71
2023/07/24 14:36:55;;;;;;;;;;;19.40;99.90;;;;;;8329344;28;19929;-71
2023/07/24 14:40:56;;;;;;;;;;;19.50;99.90;;;;;;8334993;28;19925;-72
2023/07/24 14:45:01;;;;;;;;;;;19.50;99.90;;;;;;8327917;28;20415;-72
2023/07/24 14:49:03;;;;;;;;;;;19.50;99.90;;;;;;8331374;28;20374;-72
2023/07/24 14:53:05;;;;;;;;;;;19.60;99.90;;;;;;8338920;28;19925;-71
2023/07/24 14:57:06;;;;;;;;;;;19.80;99.90;;;;;;8346470;28;20372;-71
2023/07/24 15:01:23;;;;;;;;;;;19.90;99.90;;;;;;8326715;28;20347;-72
2023/07/24 15:05:25;;;;;;;;;;;20.10;99.90;;;;;;8332877;28;19974;-72
2023/07/24 15:09:27;;;;;;;;;;;20.30;99.90;;;;;;8334580;28;19925;-71
2023/07/24 15:13:28;;;;;;;;;;;20.40;99.90;;;;;;8331251;28;20418;-71
2023/07/24 15:17:30;;;;;;;;;;;20.50;99.90;;;;;;8331878;28;19962;-71
2023/07/24 15:21:32;;;;;;;;;;;20.50;99.90;;;;;;8329477;28;20303;-71
2023/07/24 15:25:33;;;;;;;;;;;20.30;99.90;;;;;;8333005;28;19955;-72
2023/07/24 15:29:35;;;;;;;;;;;20.20;99.90;;;;;;8332804;28;19932;-71
2023/07/24 15:33:37;;;;;;;;;;;20.10;99.90;;;;;;8329943;28;19931;-72
2023/07/24 15:37:39;;;;;;;;;;;20.20;99.90;;;;;;8331623;28;19929;-71
2023/07/24 15:41:40;;;;;;;;;;;20.30;99.90;;;;;;8335154;28;19952;-71
2023/07/24 15:45:42;;;;;;;;;;;20.20;99.90;;;;;;8337420;28;19928;-71
2023/07/24 15:49:44;;;;;;;;;;;20.30;99.90;;;;;;8346261;28;19975;-72
2023/07/24 15:53:45;;;;;;;;;;;20.40;99.90;;;;;;8320311;28;19933;-71
2023/07/24 15:57:48;;;;;;;;;;;20.50;99.90;;;;;;8344079;28;19925;-72
2023/07/24 16:01:50;;;;;;;;;;;20.80;99.90;;;;;;8345742;28;19936;-71
2023/07/24 16:05:52;;;;;;;;;;;21.10;99.90;;;;;;8332105;28;19937;-71
2023/07/24 16:09:54;;;;;;;;;;;21.00;99.90;;;;;;8336594;28;19932;-72
2023/07/24 16:13:55;;;;;;;;;;;20.70;99.90;;;;;;8333991;28;19929;-71
2023/07/24 16:17:57;;;;;;;;;;;20.30;99.90;;;;;;8351052;28;19925;-71
2023/07/24 16:22:01;;;;;;;;;;;20.00;99.90;;;;;;8335533;28;19925;-71
2023/07/24 16:31:09;;;;;;;;;;;19.50;99.90;;;;;;8337334;28;20288;-71
2023/07/24 16:35:11;;;;;;;;;;;19.20;99.90;;;;;;8336482;28;20388;-71
2023/07/24 16:39:13;;;;;;;;;;;19.10;99.90;;;;;;8344831;28;20368;-71
2023/07/24 16:43:15;;;;;;;;;;;19.10;99.90;;;;;;8347053;28;20308;-71
2023/07/24 16:47:16;;;;;;;;;;;19.10;99.90;;;;;;8325316;28;19929;-71
2023/07/24 16:51:18;;;;;;;;;;;19.20;99.90;;;;;;8347984;28;19924;-71
2023/07/24 16:55:20;;;;;;;;;;;19.30;99.90;;;;;;8333159;28;20379;-71
2023/07/24 16:59:22;;;;;;;;;;;19.40;99.90;;;;;;8350032;28;19925;-71
2023/07/24 17:03:24;;;;;;;;;;;19.20;99.90;;;;;;8337910;28;19925;-71
2023/07/24 17:07:26;;;;;;;;;;;19.10;99.90;;;;;;8324095;28;19925;-71
2023/07/24 17:11:27;;;;;;;;;;;18.90;99.90;;;;;;8327680;28;20299;-71
2023/07/24 17:15:29;;;;;;;;;;;18.80;99.90;;;;;;8342744;28;19972;-71
2023/07/24 17:19:31;;;;;;;;;;;18.80;99.90;;;;;;8329694;28;19935;-71
2023/07/24 17:23:33;;;;;;;;;;;18.70;99.90;;;;;;8332538;28;19968;-71
2023/07/24 17:27:36;;;;;;;;;;;18.80;99.90;;;;;;8328299;28;20392;-71
2023/07/24 17:31:42;;;;;;;;;;;18.80;99.90;;;;;;8331687;28;19925;-71
2023/07/24 17:35:43;;;;;;;;;;;18.80;99.90;;;;;;8334105;28;19925;-71
2023/07/24 17:39:45;;;;;;;;;;;18.90;99.90;;;;;;8328965;28;19936;-71
2023/07/24 17:43:47;;;;;;;;;;;19.00;99.90;;;;;;8328196;28;19987;-71
2023/07/24 17:47:48;;;;;;;;;;;19.20;99.90;;;;;;8331592;28;20428;-71
2023/07/24 17:51:50;;;;;;;;;;;19.30;99.90;;;;;;8332143;28;19940;-71
2023/07/24 17:55:52;;;;;;;;;;;19.40;99.90;;;;;;8330448;28;20380;-71
2023/07/24 17:59:54;;;;;;;;;;;19.40;99.90;;;;;;8340998;28;20368;-71
2023/07/24 18:03:55;;;;;;;;;;;19.40;99.90;;;;;;8327204;28;19925;-71
2023/07/24 18:07:57;;;;;;;;;;;19.30;99.90;;;;;;8330635;28;19987;-71
2023/07/24 18:11:58;;;;;;;;;;;19.20;99.90;;;;;;8329350;28;19928;-71
2023/07/24 18:16:01;;;;;;;;;;;19.10;99.90;;;;;;8338781;28;19979;-71
2023/07/24 18:20:03;;;;;;;;;;;19.10;99.90;;;;;;8332023;28;20355;-71
2023/07/24 18:24:05;;;;;;;;;;;19.00;99.90;;;;;;8324026;28;20406;-71
2023/07/24 18:28:07;;;;;;;;;;;18.90;99.90;;;;;;8333531;28;20380;-71
2023/07/24 18:32:08;;;;;;;;;;;18.90;99.90;;;;;;8330291;28;19925;-71
2023/07/24 18:36:10;;;;;;;;;;;18.90;99.90;;;;;;8329798;28;19929;-71
2023/07/24 18:40:12;;;;;;;;;;;18.80;99.90;;;;;;8340631;28;19929;-71
2023/07/24 18:44:14;;;;;;;;;;;18.80;99.90;;;;;;8332733;28;19929;-71
2023/07/24 18:48:16;;;;;;;;;;;18.70;99.90;;;;;;8335716;28;19979;-71
2023/07/24 18:52:17;;;;;;;;;;;18.60;99.90;;;;;;8351569;28;19932;-71
2023/07/24 18:56:19;;;;;;;;;;;18.50;99.90;;;;;;8335007;28;19933;-71
2023/07/24 19:00:21;;;;;;;;;;;18.40;99.90;;;;;;8354196;28;19979;-71
2023/07/24 19:04:22;;;;;;;;;;;18.30;99.90;;;;;;8349843;28;19929;-71
2023/07/24 19:08:24;;;;;;;;;;;18.30;99.90;;;;;;8349663;28;19926;-71
2023/07/24 19:12:26;;;;;;;;;;;18.30;99.90;;;;;;8333616;28;19933;-71
2023/07/24 19:16:27;;;;;;;;;;;18.30;99.90;;;;;;8342479;28;19952;-71
2023/07/24 19:20:30;;;;;;;;;;;18.30;99.90;;;;;;8328893;28;19974;-71
2023/07/24 19:24:32;;;;;;;;;;;18.30;99.90;;;;;;8334514;28;19933;-70
2023/07/24 19:28:33;;;;;;;;;;;18.20;99.90;;;;;;8333125;28;19936;-71
2023/07/24 19:32:35;;;;;;;;;;;18.10;99.90;;;;;;8333794;28;19929;-71
2023/07/24 19:36:41;;;;;;;;;;;18.10;99.90;;;;;;8334519;28;20388;-71
2023/07/24 19:40:42;;;;;;;;;;;18.00;99.90;;;;;;8333032;28;19929;-71
2023/07/24 19:44:44;;;;;;;;;;;18.00;99.90;;;;;;8336883;28;20418;-71
2023/07/24 19:48:46;;;;;;;;;;;18.00;99.90;;;;;;8339205;28;19925;-71
2023/07/24 19:52:49;;;;;;;;;;;17.90;99.90;;;;;;8334521;28;19929;-71
2023/07/24 19:56:50;;;;;;;;;;;17.90;99.90;;;;;;8333279;28;20391;-71
2023/07/24 20:00:53;;;;;;;;;;;17.90;99.90;;;;;;8337430;28;20614;-71
2023/07/24 20:04:55;;;;;;;;;;;17.90;99.90;;;;;;8329339;28;20153;-71
2023/07/24 20:08:56;;;;;;;;;;;17.90;99.90;;;;;;8332357;28;19929;-71
2023/07/24 20:12:58;;;;;;;;;;;17.90;99.90;;;;;;8347501;28;20308;-71
2023/07/24 20:17:00;;;;;;;;;;;17.90;99.90;;;;;;8333438;28;19983;-71
2023/07/24 20:21:01;;;;;;;;;;;17.90;99.90;;;;;;8331982;28;19940;-71
2023/07/24 20:25:03;;;;;;;;;;;17.90;99.90;;;;;;8331464;28;19932;-71
2023/07/24 20:29:05;;;;;;;;;;;17.90;99.90;;;;;;8333250;28;19940;-71
2023/07/24 20:33:07;;;;;;;;;;;17.80;99.90;;;;;;8333815;28;19929;-71
2023/07/24 20:37:09;;;;;;;;;;;17.80;99.90;;;;;;8345307;28;20284;-71
2023/07/24 20:41:12;;;;;;;;;;;17.70;99.90;;;;;;8332476;28;19935;-71
2023/07/24 20:45:13;;;;;;;;;;;17.70;99.90;;;;;;8341025;28;19949;-71
2023/07/24 20:49:15;;;;;;;;;;;17.60;99.90;;;;;;8334811;28;19979;-71
2023/07/24 20:53:17;;;;;;;;;;;17.50;99.90;;;;;;8333235;28;19925;-71
2023/07/24 20:57:18;;;;;;;;;;;17.50;99.90;;;;;;8329157;28;20442;-71
2023/07/24 21:01:22;;;;;;;;;;;17.40;99.90;;;;;;8339129;28;20383;-71
2023/07/24 21:05:24;;;;;;;;;;;17.30;99.90;;;;;;8382265;28;19924;-71
2023/07/24 21:09:26;;;;;;;;;;;17.20;99.90;;;;;;8375848;28;19925;-71
2023/07/24 21:13:27;;;;;;;;;;;17.20;99.90;;;;;;8382499;28;19935;-71
2023/07/24 21:17:29;;;;;;;;;;;17.20;99.90;;;;;;8367356;28;19925;-71
2023/07/24 21:21:31;;;;;;;;;;;17.10;99.90;;;;;;8391901;28;19978;-71
2023/07/24 21:25:33;;;;;;;;;;;17.10;99.90;;;;;;8381924;28;19925;-71
2023/07/24 21:29:34;;;;;;;;;;;17.00;99.90;;;;;;8370548;28;19929;-71
2023/07/24 21:33:37;;;;;;;;;;;17.00;99.90;;;;;;8368900;28;19928;-70
2023/07/24 21:37:40;;;;;;;;;;;17.00;99.90;;;;;;8395104;28;19978;-71
2023/07/24 21:41:42;;;;;;;;;;;16.90;99.90;;;;;;8373958;28;20385;-71
2023/07/24 21:45:43;;;;;;;;;;;16.90;99.90;;;;;;8382109;28;19931;-71
2023/07/24 21:49:45;;;;;;;;;;;16.80;99.90;;;;;;8383967;28;19932;-71
2023/07/24 21:53:46;;;;;;;;;;;16.70;99.90;;;;;;8374928;28;19925;-71
2023/07/24 21:57:48;;;;;;;;;;;16.60;99.90;;;;;;8379434;28;19939;-71
2023/07/24 22:01:50;;;;;;;;;;;16.50;99.90;;;;;;8362772;28;19974;-71
2023/07/24 22:05:51;;;;;;;;;;;16.40;99.90;;;;;;8369651;28;19924;-71
2023/07/24 22:09:53;;;;;;;;;;;16.40;99.90;;;;;;8368946;28;20440;-71
2023/07/24 22:13:55;;;;;;;;;;;16.30;99.90;;;;;;8373338;28;19925;-71
2023/07/24 22:33:06;;;;;;;;;;;15.90;99.90;;;;;;8361479;28;19920;-71
2023/07/24 22:37:08;;;;;;;;;;;15.80;99.90;;;;;;8379773;28;19929;-71
2023/07/24 22:41:12;;;;;;;;;;;15.70;99.90;;;;;;8377201;28;19971;-71
2023/07/24 22:45:14;;;;;;;;;;;15.70;99.90;;;;;;8381285;28;19924;-70
2023/07/24 22:49:16;;;;;;;;;;;15.60;99.90;;;;;;8387787;28;20483;-71
2023/07/24 22:53:18;;;;;;;;;;;15.50;99.90;;;;;;8391139;28;19925;-71
2023/07/24 22:57:20;;;;;;;;;;;15.40;99.90;;;;;;8367090;28;19929;-70
2023/07/24 23:01:24;;;;;;;;;;;15.40;99.90;;;;;;8370858;28;19925;-70
2023/07/24 23:05:26;;;;;;;;;;;15.30;99.90;;;;;;8383634;28;19932;-71
2023/07/24 23:09:28;;;;;;;;;;;15.30;99.90;;;;;;8380595;28;19932;-71
2023/07/24 23:13:29;;;;;;;;;;;15.20;99.90;;;;;;8375317;28;19924;-71
2023/07/24 23:17:31;;;;;;;;;;;15.10;99.90;;;;;;8367840;28;19924;-71
2023/07/24 23:21:33;;;;;;;;;;;15.00;99.90;;;;;;8368546;28;20349;-71
2023/07/24 23:25:35;;;;;;;;;;;15.00;99.90;;;;;;8372146;28;19924;-70
2023/07/24 23:29:36;;;;;;;;;;;15.00;99.90;;;;;;8380896;28;19944;-70
2023/07/24 23:33:38;;;;;;;;;;;14.90;99.90;;;;;;8395170;28;19978;-71
2023/07/24 23:37:40;;;;;;;;;;;14.90;99.90;;;;;;8385394;28;19940;-71
2023/07/24 23:41:42;;;;;;;;;;;14.80;99.90;;;;;;8385351;28;19979;-71
2023/07/24 23:45:43;;;;;;;;;;;14.80;99.90;;;;;;8394508;28;19925;-70
2023/07/24 23:49:45;;;;;;;;;;;14.70;99.90;;;;;;8378454;28;20023;-71
2023/07/24 23:53:47;;;;;;;;;;;14.70;99.90;;;;;;8386431;28;19925;-70
2023/07/24 23:57:49;;;;;;;;;;;14.60;99.90;;;;;;8373950;28;20438;-70
